sensor_id;sensor_type;location;lat;lon;timestamp;pressure;altitude;pressure_sealevel;temperature;humidity
61898;BME280;47850;50.274;18.908;2024-01-30T00:02:18;99890.14;;;-0.35;93.08
61898;BME280;47850;50.274;18.908;2024-01-30T00:04:46;99887.79;;;-0.34;93.17
61898;BME280;47850;50.274;18.908;2024-01-30T00:07:14;99885.19;;;-0.33;92.96
61898;BME280;47850;50.274;18.908;2024-01-30T00:09:41;99882.52;;;-0.32;92.96
61898;BME280;47850;50.274;18.908;2024-01-30T00:12:09;99880.70;;;-0.32;92.72
61898;BME280;47850;50.274;18.908;2024-01-30T00:14:37;99881.40;;;-0.32;92.87
61898;BME280;47850;50.274;18.908;2024-01-30T00:17:05;99881.44;;;-0.31;92.79
61898;BME280;47850;50.274;18.908;2024-01-30T00:19:32;99880.70;;;-0.32;92.65
61898;BME280;47850;50.274;18.908;2024-01-30T00:22:00;99878.61;;;-0.31;92.77
61898;BME280;47850;50.274;18.908;2024-01-30T00:24:28;99878.52;;;-0.31;92.59
61898;BME280;47850;50.274;18.908;2024-01-30T00:26:55;99878.77;;;-0.32;92.60
61898;BME280;47850;50.274;18.908;2024-01-30T00:29:23;99877.14;;;-0.33;92.52
61898;BME280;47850;50.274;18.908;2024-01-30T00:31:53;99877.95;;;-0.35;92.60
61898;BME280;47850;50.274;18.908;2024-01-30T00:34:20;99878.17;;;-0.37;92.57
61898;BME280;47850;50.274;18.908;2024-01-30T00:36:49;99879.37;;;-0.37;92.84
61898;BME280;47850;50.274;18.908;2024-01-30T00:39:16;99882.55;;;-0.35;92.76
61898;BME280;47850;50.274;18.908;2024-01-30T00:41:46;99885.02;;;-0.32;92.61
61898;BME280;47850;50.274;18.908;2024-01-30T00:44:14;99880.59;;;-0.31;92.46
61898;BME280;47850;50.274;18.908;2024-01-30T00:46:42;99875.01;;;-0.29;92.49
61898;BME280;47850;50.274;18.908;2024-01-30T00:49:10;99875.67;;;-0.28;92.21
61898;BME280;47850;50.274;18.908;2024-01-30T00:51:38;99875.70;;;-0.26;92.05
61898;BME280;47850;50.274;18.908;2024-01-30T00:54:06;99872.17;;;-0.25;91.85
61898;BME280;47850;50.274;18.908;2024-01-30T00:56:33;99871.49;;;-0.25;91.92
61898;BME280;47850;50.274;18.908;2024-01-30T00:59:02;99868.77;;;-0.24;91.76
61898;BME280;47850;50.274;18.908;2024-01-30T01:01:30;99869.48;;;-0.24;91.58
61898;BME280;47850;50.274;18.908;2024-01-30T01:03:57;99870.38;;;-0.24;91.55
61898;BME280;47850;50.274;18.908;2024-01-30T01:06:25;99868.15;;;-0.24;91.38
61898;BME280;47850;50.274;18.908;2024-01-30T01:08:53;99863.62;;;-0.23;91.30
61898;BME280;47850;50.274;18.908;2024-01-30T01:11:21;99861.10;;;-0.24;91.43
61898;BME280;47850;50.274;18.908;2024-01-30T01:13:49;99856.06;;;-0.25;91.25
61898;BME280;47850;50.274;18.908;2024-01-30T01:16:17;99852.33;;;-0.28;91.57
61898;BME280;47850;50.274;18.908;2024-01-30T01:18:45;99854.64;;;-0.31;91.59
61898;BME280;47850;50.274;18.908;2024-01-30T01:21:12;99848.45;;;-0.31;91.70
61898;BME280;47850;50.274;18.908;2024-01-30T01:23:40;99846.31;;;-0.31;91.60
61898;BME280;47850;50.274;18.908;2024-01-30T01:26:08;99844.15;;;-0.31;91.62
61898;BME280;47850;50.274;18.908;2024-01-30T01:28:40;99842.75;;;-0.31;91.78
61898;BME280;47850;50.274;18.908;2024-01-30T01:31:08;99837.52;;;-0.31;91.76
61898;BME280;47850;50.274;18.908;2024-01-30T01:33:36;99837.02;;;-0.31;91.71
61898;BME280;47850;50.274;18.908;2024-01-30T01:36:05;99838.30;;;-0.33;91.65
61898;BME280;47850;50.274;18.908;2024-01-30T01:38:34;99840.81;;;-0.36;91.92
61898;BME280;47850;50.274;18.908;2024-01-30T01:41:02;99841.94;;;-0.39;91.73
61898;BME280;47850;50.274;18.908;2024-01-30T01:43:29;99841.52;;;-0.42;92.13
61898;BME280;47850;50.274;18.908;2024-01-30T01:45:57;99840.02;;;-0.44;92.17
61898;BME280;47850;50.274;18.908;2024-01-30T01:48:25;99840.89;;;-0.47;92.29
61898;BME280;47850;50.274;18.908;2024-01-30T01:50:54;99837.27;;;-0.49;92.33
61898;BME280;47850;50.274;18.908;2024-01-30T01:53:22;99837.21;;;-0.53;92.62
61898;BME280;47850;50.274;18.908;2024-01-30T01:55:49;99832.89;;;-0.55;92.78
61898;BME280;47850;50.274;18.908;2024-01-30T01:58:18;99834.98;;;-0.58;92.83
61898;BME280;47850;50.274;18.908;2024-01-30T02:00:47;99837.85;;;-0.59;93.26
61898;BME280;47850;50.274;18.908;2024-01-30T02:03:17;99836.27;;;-0.61;93.26
61898;BME280;47850;50.274;18.908;2024-01-30T02:05:45;99833.17;;;-0.63;93.32
61898;BME280;47850;50.274;18.908;2024-01-30T02:08:14;99832.76;;;-0.65;93.57
61898;BME280;47850;50.274;18.908;2024-01-30T02:10:41;99835.23;;;-0.68;93.68
61898;BME280;47850;50.274;18.908;2024-01-30T02:13:09;99834.98;;;-0.68;93.62
61898;BME280;47850;50.274;18.908;2024-01-30T02:15:37;99832.09;;;-0.70;93.92
61898;BME280;47850;50.274;18.908;2024-01-30T02:18:05;99829.59;;;-0.71;94.10
61898;BME280;47850;50.274;18.908;2024-01-30T02:20:35;99826.20;;;-0.72;94.19
61898;BME280;47850;50.274;18.908;2024-01-30T02:23:03;99823.31;;;-0.73;94.18
61898;BME280;47850;50.274;18.908;2024-01-30T02:25:33;99819.92;;;-0.73;94.62
61898;BME280;47850;50.274;18.908;2024-01-30T02:28:01;99814.78;;;-0.74;94.52
61898;BME280;47850;50.274;18.908;2024-01-30T02:30:29;99816.63;;;-0.75;94.45
61898;BME280;47850;50.274;18.908;2024-01-30T02:32:57;99813.25;;;-0.75;94.78
61898;BME280;47850;50.274;18.908;2024-01-30T02:35:24;99817.08;;;-0.76;94.87
61898;BME280;47850;50.274;18.908;2024-01-30T02:37:52;99816.25;;;-0.75;94.84
61898;BME280;47850;50.274;18.908;2024-01-30T02:40:20;99814.69;;;-0.76;94.76
61898;BME280;47850;50.274;18.908;2024-01-30T02:42:48;99812.67;;;-0.75;94.82
61898;BME280;47850;50.274;18.908;2024-01-30T02:45:16;99813.50;;;-0.75;94.85
61898;BME280;47850;50.274;18.908;2024-01-30T02:47:43;99818.04;;;-0.74;94.73
61898;BME280;47850;50.274;18.908;2024-01-30T02:50:11;99820.13;;;-0.75;94.62
61898;BME280;47850;50.274;18.908;2024-01-30T02:52:39;99820.17;;;-0.76;94.75
61898;BME280;47850;50.274;18.908;2024-01-30T02:55:07;99821.98;;;-0.78;94.72
61898;BME280;47850;50.274;18.908;2024-01-30T02:57:35;99818.04;;;-0.79;94.79
61898;BME280;47850;50.274;18.908;2024-01-30T03:00:03;99817.46;;;-0.80;94.83
61898;BME280;47850;50.274;18.908;2024-01-30T03:02:34;99814.02;;;-0.82;95.18
61898;BME280;47850;50.274;18.908;2024-01-30T03:05:02;99812.04;;;-0.83;95.04
61898;BME280;47850;50.274;18.908;2024-01-30T03:07:31;99811.06;;;-0.85;95.09
61898;BME280;47850;50.274;18.908;2024-01-30T03:09:59;99815.05;;;-0.87;95.18
61898;BME280;47850;50.274;18.908;2024-01-30T03:12:27;99812.61;;;-0.89;95.03
61898;BME280;47850;50.274;18.908;2024-01-30T03:14:54;99810.51;;;-0.90;95.29
61898;BME280;47850;50.274;18.908;2024-01-30T03:17:22;99811.01;;;-0.91;95.46
61898;BME280;47850;50.274;18.908;2024-01-30T03:19:51;99809.73;;;-0.92;95.54
61898;BME280;47850;50.274;18.908;2024-01-30T03:22:19;99810.59;;;-0.93;95.65
61898;BME280;47850;50.274;18.908;2024-01-30T03:24:47;99809.56;;;-0.94;95.48
61898;BME280;47850;50.274;18.908;2024-01-30T03:27:17;99809.48;;;-0.93;95.67
61898;BME280;47850;50.274;18.908;2024-01-30T03:29:45;99803.14;;;-0.94;95.77
61898;BME280;47850;50.274;18.908;2024-01-30T03:32:13;99802.80;;;-0.95;95.77
61898;BME280;47850;50.274;18.908;2024-01-30T03:34:40;99803.61;;;-0.97;95.87
61898;BME280;47850;50.274;18.908;2024-01-30T03:37:08;99808.11;;;-0.98;96.05
61898;BME280;47850;50.274;18.908;2024-01-30T03:39:36;99807.29;;;-0.98;95.84
61898;BME280;47850;50.274;18.908;2024-01-30T03:42:04;99800.04;;;-0.99;95.82
61898;BME280;47850;50.274;18.908;2024-01-30T03:44:31;99800.32;;;-1.00;96.00
61898;BME280;47850;50.274;18.908;2024-01-30T03:46:59;99798.64;;;-1.00;95.57
61898;BME280;47850;50.274;18.908;2024-01-30T03:49:27;99802.34;;;-1.01;95.82
61898;BME280;47850;50.274;18.908;2024-01-30T03:51:55;99809.34;;;-1.02;95.78
61898;BME280;47850;50.274;18.908;2024-01-30T03:54:22;99807.82;;;-1.01;95.79
61898;BME280;47850;50.274;18.908;2024-01-30T03:56:50;99807.73;;;-1.01;95.82
61898;BME280;47850;50.274;18.908;2024-01-30T03:59:18;99804.88;;;-1.02;95.89
61898;BME280;47850;50.274;18.908;2024-01-30T04:01:51;99798.55;;;-1.01;95.83
61898;BME280;47850;50.274;18.908;2024-01-30T04:04:19;99799.95;;;-1.01;95.90
61898;BME280;47850;50.274;18.908;2024-01-30T04:06:47;99800.23;;;-1.01;95.67
61898;BME280;47850;50.274;18.908;2024-01-30T04:09:15;99797.89;;;-1.01;95.83
61898;BME280;47850;50.274;18.908;2024-01-30T04:11:43;99798.16;;;-1.01;95.93
61898;BME280;47850;50.274;18.908;2024-01-30T04:14:11;99796.27;;;-1.00;95.78
61898;BME280;47850;50.274;18.908;2024-01-30T04:16:38;99797.13;;;-0.98;95.79
61898;BME280;47850;50.274;18.908;2024-01-30T04:19:06;99795.13;;;-0.97;95.52
61898;BME280;47850;50.274;18.908;2024-01-30T04:21:34;99793.33;;;-0.98;95.32
61898;BME280;47850;50.274;18.908;2024-01-30T04:24:02;99796.21;;;-0.98;95.36
61898;BME280;47850;50.274;18.908;2024-01-30T04:26:29;99796.13;;;-0.98;95.27
61898;BME280;47850;50.274;18.908;2024-01-30T04:28:57;99795.80;;;-0.98;95.14
61898;BME280;47850;50.274;18.908;2024-01-30T04:31:25;99793.16;;;-0.98;95.02
61898;BME280;47850;50.274;18.908;2024-01-30T04:33:52;99796.34;;;-0.99;95.24
61898;BME280;47850;50.274;18.908;2024-01-30T04:36:20;99794.88;;;-1.00;95.16
61898;BME280;47850;50.274;18.908;2024-01-30T04:38:48;99796.65;;;-1.02;94.97
61898;BME280;47850;50.274;18.908;2024-01-30T04:41:16;99800.94;;;-1.03;95.10
61898;BME280;47850;50.274;18.908;2024-01-30T04:43:43;99800.98;;;-1.03;94.80
61898;BME280;47850;50.274;18.908;2024-01-30T04:46:11;99801.63;;;-1.04;94.82
61898;BME280;47850;50.274;18.908;2024-01-30T04:48:39;99806.81;;;-1.04;94.89
61898;BME280;47850;50.274;18.908;2024-01-30T04:51:07;99800.55;;;-1.05;94.87
61898;BME280;47850;50.274;18.908;2024-01-30T04:53:35;99804.39;;;-1.05;94.77
61898;BME280;47850;50.274;18.908;2024-01-30T04:56:04;99797.02;;;-1.04;94.78
61898;BME280;47850;50.274;18.908;2024-01-30T04:58:32;99801.17;;;-1.05;94.62
61898;BME280;47850;50.274;18.908;2024-01-30T05:01:00;99797.64;;;-1.05;94.47
61898;BME280;47850;50.274;18.908;2024-01-30T05:03:28;99796.52;;;-1.07;94.63
61898;BME280;47850;50.274;18.908;2024-01-30T05:05:55;99797.22;;;-1.08;94.62
61898;BME280;47850;50.274;18.908;2024-01-30T05:08:23;99796.42;;;-1.09;94.55
61898;BME280;47850;50.274;18.908;2024-01-30T05:10:51;99798.77;;;-1.11;94.61
61898;BME280;47850;50.274;18.908;2024-01-30T05:13:19;99799.11;;;-1.12;94.75
61898;BME280;47850;50.274;18.908;2024-01-30T05:15:46;99804.30;;;-1.12;94.70
61898;BME280;47850;50.274;18.908;2024-01-30T05:18:14;99803.43;;;-1.14;94.65
61898;BME280;47850;50.274;18.908;2024-01-30T05:20:42;99808.98;;;-1.14;94.83
61898;BME280;47850;50.274;18.908;2024-01-30T05:23:10;99805.73;;;-1.15;94.72
61898;BME280;47850;50.274;18.908;2024-01-30T05:25:37;99806.88;;;-1.17;94.86
61898;BME280;47850;50.274;18.908;2024-01-30T05:28:05;99805.70;;;-1.20;94.69
61898;BME280;47850;50.274;18.908;2024-01-30T05:30:33;99803.15;;;-1.24;94.76
61898;BME280;47850;50.274;18.908;2024-01-30T05:33:01;99808.33;;;-1.27;95.13
61898;BME280;47850;50.274;18.908;2024-01-30T05:35:29;99808.52;;;-1.28;95.29
61898;BME280;47850;50.274;18.908;2024-01-30T05:37:56;99810.27;;;-1.29;95.28
61898;BME280;47850;50.274;18.908;2024-01-30T05:40:24;99812.18;;;-1.30;95.24
61898;BME280;47850;50.274;18.908;2024-01-30T05:42:52;99812.66;;;-1.32;95.28
61898;BME280;47850;50.274;18.908;2024-01-30T05:45:19;99810.52;;;-1.35;95.26
61898;BME280;47850;50.274;18.908;2024-01-30T05:47:47;99808.10;;;-1.36;95.57
61898;BME280;47850;50.274;18.908;2024-01-30T05:50:15;99809.46;;;-1.35;95.51
61898;BME280;47850;50.274;18.908;2024-01-30T05:52:43;99808.14;;;-1.35;95.43
61898;BME280;47850;50.274;18.908;2024-01-30T05:55:12;99808.42;;;-1.34;95.41
61898;BME280;47850;50.274;18.908;2024-01-30T05:57:40;99805.10;;;-1.33;95.46
61898;BME280;47850;50.274;18.908;2024-01-30T06:00:07;99810.05;;;-1.32;95.46
61898;BME280;47850;50.274;18.908;2024-01-30T06:02:36;99807.20;;;-1.30;95.10
61898;BME280;47850;50.274;18.908;2024-01-30T06:05:04;99806.02;;;-1.29;95.07
61898;BME280;47850;50.274;18.908;2024-01-30T06:07:32;99803.67;;;-1.28;95.06
61898;BME280;47850;50.274;18.908;2024-01-30T06:09:59;99802.73;;;-1.27;95.25
61898;BME280;47850;50.274;18.908;2024-01-30T06:12:29;99803.73;;;-1.25;95.25
61898;BME280;47850;50.274;18.908;2024-01-30T06:14:56;99804.10;;;-1.23;94.97
61898;BME280;47850;50.274;18.908;2024-01-30T06:17:25;99806.13;;;-1.21;94.90
61898;BME280;47850;50.274;18.908;2024-01-30T06:19:52;99802.27;;;-1.20;94.66
61898;BME280;47850;50.274;18.908;2024-01-30T06:22:20;99808.28;;;-1.20;94.76
61898;BME280;47850;50.274;18.908;2024-01-30T06:24:48;99803.05;;;-1.19;94.84
61898;BME280;47850;50.274;18.908;2024-01-30T06:27:16;99804.52;;;-1.16;94.66
61898;BME280;47850;50.274;18.908;2024-01-30T06:29:45;99808.83;;;-1.13;94.32
61898;BME280;47850;50.274;18.908;2024-01-30T06:32:13;99809.02;;;-1.10;94.31
61898;BME280;47850;50.274;18.908;2024-01-30T06:34:41;99811.19;;;-1.07;94.22
61898;BME280;47850;50.274;18.908;2024-01-30T06:37:11;99811.06;;;-1.05;94.03
61898;BME280;47850;50.274;18.908;2024-01-30T06:39:38;99807.20;;;-1.03;93.75
61898;BME280;47850;50.274;18.908;2024-01-30T06:42:06;99808.63;;;-1.02;93.69
61898;BME280;47850;50.274;18.908;2024-01-30T06:44:34;99807.61;;;-1.00;93.48
61898;BME280;47850;50.274;18.908;2024-01-30T06:47:02;99810.46;;;-0.95;93.32
61898;BME280;47850;50.274;18.908;2024-01-30T06:49:30;99811.67;;;-0.92;93.13
61898;BME280;47850;50.274;18.908;2024-01-30T06:51:58;99805.80;;;-0.90;92.94
61898;BME280;47850;50.274;18.908;2024-01-30T06:54:25;99810.86;;;-0.86;92.81
61898;BME280;47850;50.274;18.908;2024-01-30T06:56:53;99811.02;;;-0.83;92.62
61898;BME280;47850;50.274;18.908;2024-01-30T06:59:21;99814.73;;;-0.82;92.45
61898;BME280;47850;50.274;18.908;2024-01-30T07:01:49;99813.46;;;-0.78;92.69
61898;BME280;47850;50.274;18.908;2024-01-30T07:04:16;99817.78;;;-0.76;92.34
61898;BME280;47850;50.274;18.908;2024-01-30T07:06:45;99814.16;;;-0.74;92.08
61898;BME280;47850;50.274;18.908;2024-01-30T07:09:13;99816.85;;;-0.70;91.93
61898;BME280;47850;50.274;18.908;2024-01-30T07:11:41;99818.04;;;-0.66;91.84
61898;BME280;47850;50.274;18.908;2024-01-30T07:14:09;99817.84;;;-0.62;91.62
61898;BME280;47850;50.274;18.908;2024-01-30T07:16:36;99818.63;;;-0.58;91.41
61898;BME280;47850;50.274;18.908;2024-01-30T07:19:04;99820.85;;;-0.55;91.10
61898;BME280;47850;50.274;18.908;2024-01-30T07:21:32;99824.32;;;-0.51;91.00
61898;BME280;47850;50.274;18.908;2024-01-30T07:24:00;99828.32;;;-0.48;90.81
61898;BME280;47850;50.274;18.908;2024-01-30T07:26:28;99827.05;;;-0.43;90.72
61898;BME280;47850;50.274;18.908;2024-01-30T07:28:55;99832.60;;;-0.40;90.52
61898;BME280;47850;50.274;18.908;2024-01-30T07:31:23;99823.46;;;-0.36;90.08
61898;BME280;47850;50.274;18.908;2024-01-30T07:33:51;99820.03;;;-0.31;90.10
61898;BME280;47850;50.274;18.908;2024-01-30T07:36:19;99818.98;;;-0.27;89.94
61898;BME280;47850;50.274;18.908;2024-01-30T07:38:46;99816.93;;;-0.24;89.51
61898;BME280;47850;50.274;18.908;2024-01-30T07:41:14;99820.41;;;-0.20;89.47
61898;BME280;47850;50.274;18.908;2024-01-30T07:43:43;99823.59;;;-0.15;89.20
61898;BME280;47850;50.274;18.908;2024-01-30T07:46:11;99823.55;;;-0.11;88.89
61898;BME280;47850;50.274;18.908;2024-01-30T07:48:39;99822.88;;;-0.06;88.72
61898;BME280;47850;50.274;18.908;2024-01-30T07:51:07;99825.40;;;-0.01;88.33
61898;BME280;47850;50.274;18.908;2024-01-30T07:53:35;99827.58;;;0.05;88.17
61898;BME280;47850;50.274;18.908;2024-01-30T07:56:02;99828.14;;;0.11;87.63
61898;BME280;47850;50.274;18.908;2024-01-30T07:58:30;99826.30;;;0.18;87.58
61898;BME280;47850;50.274;18.908;2024-01-30T08:00:59;99825.02;;;0.23;87.34
61898;BME280;47850;50.274;18.908;2024-01-30T08:03:28;99826.15;;;0.29;86.95
61898;BME280;47850;50.274;18.908;2024-01-30T08:05:56;99825.67;;;0.34;86.87
61898;BME280;47850;50.274;18.908;2024-01-30T08:08:24;99826.33;;;0.40;86.60
61898;BME280;47850;50.274;18.908;2024-01-30T08:10:53;99828.21;;;0.46;86.21
61898;BME280;47850;50.274;18.908;2024-01-30T08:13:21;99832.77;;;0.52;86.10
61898;BME280;47850;50.274;18.908;2024-01-30T08:15:49;99831.83;;;0.57;85.73
61898;BME280;47850;50.274;18.908;2024-01-30T08:18:16;99835.70;;;0.61;85.36
61898;BME280;47850;50.274;18.908;2024-01-30T08:20:44;99838.26;;;0.67;84.77
61898;BME280;47850;50.274;18.908;2024-01-30T08:23:12;99838.25;;;0.73;85.10
61898;BME280;47850;50.274;18.908;2024-01-30T08:25:40;99839.14;;;0.78;84.74
61898;BME280;47850;50.274;18.908;2024-01-30T08:28:07;99842.89;;;0.84;84.25
61898;BME280;47850;50.274;18.908;2024-01-30T08:30:35;99836.02;;;0.89;83.96
61898;BME280;47850;50.274;18.908;2024-01-30T08:33:03;99840.42;;;0.95;83.40
61898;BME280;47850;50.274;18.908;2024-01-30T08:35:31;99831.02;;;1.01;83.29
61898;BME280;47850;50.274;18.908;2024-01-30T08:38:00;99833.20;;;1.05;83.05
61898;BME280;47850;50.274;18.908;2024-01-30T08:40:29;99831.27;;;1.10;83.32
61898;BME280;47850;50.274;18.908;2024-01-30T08:42:58;99830.80;;;1.15;82.69
61898;BME280;47850;50.274;18.908;2024-01-30T08:45:26;99832.89;;;1.20;81.98
61898;BME280;47850;50.274;18.908;2024-01-30T08:47:54;99830.11;;;1.25;81.92
61898;BME280;47850;50.274;18.908;2024-01-30T08:50:22;99831.11;;;1.31;81.98
61898;BME280;47850;50.274;18.908;2024-01-30T08:52:50;99833.02;;;1.36;81.75
61898;BME280;47850;50.274;18.908;2024-01-30T08:55:17;99836.40;;;1.43;82.02
61898;BME280;47850;50.274;18.908;2024-01-30T08:57:45;99834.83;;;1.49;81.26
61898;BME280;47850;50.274;18.908;2024-01-30T09:00:13;99835.98;;;1.55;80.74
61898;BME280;47850;50.274;18.908;2024-01-30T09:02:41;99838.30;;;1.61;79.50
61898;BME280;47850;50.274;18.908;2024-01-30T09:05:32;99831.78;;;1.68;79.15
61898;BME280;47850;50.274;18.908;2024-01-30T09:08:00;99834.48;;;1.75;79.41
61898;BME280;47850;50.274;18.908;2024-01-30T09:10:31;99835.67;;;1.82;79.14
61898;BME280;47850;50.274;18.908;2024-01-30T09:12:58;99833.66;;;1.89;78.38
61898;BME280;47850;50.274;18.908;2024-01-30T09:15:30;99831.73;;;1.96;77.90
61898;BME280;47850;50.274;18.908;2024-01-30T09:17:58;99832.46;;;2.04;77.33
61898;BME280;47850;50.274;18.908;2024-01-30T09:20:26;99834.96;;;2.10;76.66
61898;BME280;47850;50.274;18.908;2024-01-30T09:22:54;99835.52;;;2.16;76.54
61898;BME280;47850;50.274;18.908;2024-01-30T09:25:24;99833.39;;;2.22;76.20
61898;BME280;47850;50.274;18.908;2024-01-30T09:27:52;99831.75;;;2.28;75.88
61898;BME280;47850;50.274;18.908;2024-01-30T09:30:19;99830.55;;;2.35;75.82
61898;BME280;47850;50.274;18.908;2024-01-30T09:32:47;99829.52;;;2.43;75.74
61898;BME280;47850;50.274;18.908;2024-01-30T09:35:15;99832.71;;;2.49;75.34
61898;BME280;47850;50.274;18.908;2024-01-30T09:37:43;99836.06;;;2.57;75.13
61898;BME280;47850;50.274;18.908;2024-01-30T09:40:11;99833.36;;;2.64;74.97
61898;BME280;47850;50.274;18.908;2024-01-30T09:42:42;99832.73;;;2.71;75.23
61898;BME280;47850;50.274;18.908;2024-01-30T09:45:13;99826.83;;;2.77;74.55
61898;BME280;47850;50.274;18.908;2024-01-30T09:47:43;99827.48;;;2.83;73.97
61898;BME280;47850;50.274;18.908;2024-01-30T09:50:15;99826.61;;;2.91;73.94
61898;BME280;47850;50.274;18.908;2024-01-30T09:52:47;99827.23;;;3.00;74.42
61898;BME280;47850;50.274;18.908;2024-01-30T09:55:18;99821.27;;;3.09;73.93
61898;BME280;47850;50.274;18.908;2024-01-30T09:57:50;99818.14;;;3.17;73.45
61898;BME280;47850;50.274;18.908;2024-01-30T10:00:19;99815.48;;;3.25;73.26
61898;BME280;47850;50.274;18.908;2024-01-30T10:02:47;99817.02;;;3.32;72.38
61898;BME280;47850;50.274;18.908;2024-01-30T10:05:18;99821.09;;;3.38;71.36
61898;BME280;47850;50.274;18.908;2024-01-30T10:07:52;99817.65;;;3.43;70.80
61898;BME280;47850;50.274;18.908;2024-01-30T10:10:25;99813.45;;;3.50;71.31
61898;BME280;47850;50.274;18.908;2024-01-30T10:12:53;99814.04;;;3.58;70.66
61898;BME280;47850;50.274;18.908;2024-01-30T10:15:23;99811.24;;;3.63;69.48
61898;BME280;47850;50.274;18.908;2024-01-30T10:17:59;99810.62;;;3.69;69.10
61898;BME280;47850;50.274;18.908;2024-01-30T10:20:27;99806.08;;;3.75;68.27
61898;BME280;47850;50.274;18.908;2024-01-30T10:22:54;99804.14;;;3.79;67.61
61898;BME280;47850;50.274;18.908;2024-01-30T10:25:22;99800.23;;;3.84;68.63
61898;BME280;47850;50.274;18.908;2024-01-30T10:27:54;99795.02;;;3.90;67.18
61898;BME280;47850;50.274;18.908;2024-01-30T10:30:25;99795.23;;;3.97;67.70
61898;BME280;47850;50.274;18.908;2024-01-30T10:32:53;99792.77;;;4.05;67.25
61898;BME280;47850;50.274;18.908;2024-01-30T10:35:21;99793.59;;;4.14;66.44
61898;BME280;47850;50.274;18.908;2024-01-30T10:37:52;99792.42;;;4.22;66.65
61898;BME280;47850;50.274;18.908;2024-01-30T10:40:21;99789.13;;;4.32;66.72
61898;BME280;47850;50.274;18.908;2024-01-30T10:42:56;99788.27;;;4.43;66.25
61898;BME280;47850;50.274;18.908;2024-01-30T10:45:26;99783.75;;;4.50;64.96
61898;BME280;47850;50.274;18.908;2024-01-30T10:47:55;99780.72;;;4.55;63.73
61898;BME280;47850;50.274;18.908;2024-01-30T10:50:25;99777.75;;;4.60;63.57
61898;BME280;47850;50.274;18.908;2024-01-30T10:52:55;99775.37;;;4.66;63.58
61898;BME280;47850;50.274;18.908;2024-01-30T10:55:24;99772.67;;;4.72;64.24
61898;BME280;47850;50.274;18.908;2024-01-30T10:57:52;99770.29;;;4.81;63.60
61898;BME280;47850;50.274;18.908;2024-01-30T11:00:22;99770.02;;;4.89;64.17
61898;BME280;47850;50.274;18.908;2024-01-30T11:02:52;99766.14;;;4.99;63.72
61898;BME280;47850;50.274;18.908;2024-01-30T11:05:24;99768.48;;;5.06;62.44
61898;BME280;47850;50.274;18.908;2024-01-30T11:08:32;99766.19;;;5.11;61.61
61898;BME280;47850;50.274;18.908;2024-01-30T11:11:01;99757.66;;;5.18;61.32
61898;BME280;47850;50.274;18.908;2024-01-30T11:13:29;99750.26;;;5.28;62.66
61898;BME280;47850;50.274;18.908;2024-01-30T11:16:02;99749.67;;;5.43;63.00
61898;BME280;47850;50.274;18.908;2024-01-30T11:18:31;99753.40;;;5.53;61.33
61898;BME280;47850;50.274;18.908;2024-01-30T11:21:00;99756.47;;;5.55;60.66
61898;BME280;47850;50.274;18.908;2024-01-30T11:23:28;99751.35;;;5.61;60.87
61898;BME280;47850;50.274;18.908;2024-01-30T11:25:57;99754.83;;;5.69;61.57
61898;BME280;47850;50.274;18.908;2024-01-30T11:28:33;99758.17;;;5.79;59.67
61898;BME280;47850;50.274;18.908;2024-01-30T11:31:05;99755.02;;;5.96;60.22
61898;BME280;47850;50.274;18.908;2024-01-30T11:33:34;99757.15;;;6.35;60.15
61898;BME280;47850;50.274;18.908;2024-01-30T11:36:02;99748.80;;;6.73;57.73
61898;BME280;47850;50.274;18.908;2024-01-30T11:38:30;99746.29;;;7.04;56.77
61898;BME280;47850;50.274;18.908;2024-01-30T11:40:58;99742.47;;;7.34;55.58
61898;BME280;47850;50.274;18.908;2024-01-30T11:43:28;99742.05;;;7.56;53.93
61898;BME280;47850;50.274;18.908;2024-01-30T11:45:55;99743.38;;;7.69;53.34
61898;BME280;47850;50.274;18.908;2024-01-30T11:48:23;99730.63;;;7.89;53.84
61898;BME280;47850;50.274;18.908;2024-01-30T11:50:52;99732.14;;;8.20;54.39
61898;BME280;47850;50.274;18.908;2024-01-30T11:53:20;99731.77;;;8.59;52.56
61898;BME280;47850;50.274;18.908;2024-01-30T11:55:50;99725.09;;;8.94;52.31
61898;BME280;47850;50.274;18.908;2024-01-30T11:58:18;99722.93;;;9.22;50.61
61898;BME280;47850;50.274;18.908;2024-01-30T12:00:56;99716.39;;;9.43;49.91
61898;BME280;47850;50.274;18.908;2024-01-30T12:03:30;99721.71;;;9.64;47.91
61898;BME280;47850;50.274;18.908;2024-01-30T12:05:58;99710.95;;;9.92;48.60
61898;BME280;47850;50.274;18.908;2024-01-30T12:08:26;99714.27;;;10.26;47.45
61898;BME280;47850;50.274;18.908;2024-01-30T12:10:57;99707.34;;;10.46;46.25
61898;BME280;47850;50.274;18.908;2024-01-30T12:13:33;99697.13;;;10.77;46.47
61898;BME280;47850;50.274;18.908;2024-01-30T12:16:01;99696.55;;;11.11;46.43
61898;BME280;47850;50.274;18.908;2024-01-30T12:18:29;99691.98;;;11.59;45.76
61898;BME280;47850;50.274;18.908;2024-01-30T12:21:00;99691.39;;;11.83;42.99
61898;BME280;47850;50.274;18.908;2024-01-30T12:23:28;99688.62;;;12.02;42.92
61898;BME280;47850;50.274;18.908;2024-01-30T12:25:57;99682.81;;;12.04;41.87
61898;BME280;47850;50.274;18.908;2024-01-30T12:28:24;99682.29;;;12.24;42.44
61898;BME280;47850;50.274;18.908;2024-01-30T12:30:56;99682.16;;;12.42;41.11
61898;BME280;47850;50.274;18.908;2024-01-30T12:33:29;99678.02;;;12.65;40.99
61898;BME280;47850;50.274;18.908;2024-01-30T12:36:01;99676.23;;;12.83;40.89
61898;BME280;47850;50.274;18.908;2024-01-30T12:38:29;99675.13;;;13.14;40.61
61898;BME280;47850;50.274;18.908;2024-01-30T12:40:57;99672.94;;;13.33;39.40
61898;BME280;47850;50.274;18.908;2024-01-30T12:43:25;99667.27;;;13.48;40.47
61898;BME280;47850;50.274;18.908;2024-01-30T12:45:53;99659.83;;;13.71;39.14
61898;BME280;47850;50.274;18.908;2024-01-30T12:48:21;99660.02;;;13.94;39.89
61898;BME280;47850;50.274;18.908;2024-01-30T12:50:48;99661.61;;;14.24;38.13
61898;BME280;47850;50.274;18.908;2024-01-30T12:53:17;99658.90;;;14.41;37.72
61898;BME280;47850;50.274;18.908;2024-01-30T12:55:45;99660.08;;;14.45;36.71
61898;BME280;47850;50.274;18.908;2024-01-30T12:58:13;99665.06;;;14.67;37.73
61898;BME280;47850;50.274;18.908;2024-01-30T13:00:40;99655.66;;;15.10;37.14